KOCW/OCW METAR and TAF weather

Enter ICAO airport designator
Station Type Date Time Source
KOCW METAR 2022/06/30 02:15 UTC NOAA

KOCW 300215Z AUTO 00000KT 10SM CLR 23/20 A3026 RMK AO2 T02300200


Station Type Date Time Source
KOCW Decoded METAR 2022/06/30 02:15 UTC NOAA

Washington, Warren Field Airport, NC, United States (KOCW) 35-34-14N 077-02-59W
Jun 29, 2022 - 10:15 PM EDT / 2022.06.30 0215 UTC
Wind: Calm:0
Visibility: 10 mile(s):0
Sky conditions: clear
Temperature: 73.4 F (23.0 C)
Dew Point: 68.0 F (20.0 C)
Relative Humidity: 83%
Pressure (altimeter): 30.26 in. Hg (1024 hPa)
ob: KOCW 300215Z AUTO 00000KT 10SM CLR 23/20 A3026 RMK AO2 T02300200
cycle: 2

Station Type Date Time Source
KOCW TAF UTC NOAA

Error!

Example: see airport list